TAF Text Data
IDs:
Format:
Raw Decoded Include METAR

Data at: 1719 UTC 03 Jul 2020

METAR for:KRYW (Lago Vista/Allen Arp, TX, US)
Text:KRYW 031715Z AUTO 24003KT 10SM CLR 31/20 A3006 RMK AO2 T03100197
Temperature: 31.0°C ( 88°F)
Dewpoint: 19.7°C ( 67°F) [RH = 51%]
Pressure (altimeter):30.06 inches Hg (1018.0 mb)
Winds:from the WSW (240 degrees) at 3 MPH (3 knots; 1.5 m/s)
Visibility:10 or more sm (16+ km)
Ceiling:at least 12,000 feet AGL
Clouds:sky clear below 12,000 feet AGL
QC Flag:automated observation with no human augmentation

TAF for:KRYW (Lago Vista/Allen Arp, TX, US)
Text:No data found